Time;durP1;ratioP1;P1;durP2;ratioP2;P2;SDS_P1;SDS_P2;PMS_P1;PMS_P2;Temp;Humidity;BMP_temperature;BMP_pressure;BME280_temperature;BME280_humidity;BME280_pressure;Samples;Min_cycle;Max_cycle;Signal;HPM_P1;HPM_P2
2021/08/05 00:01:32;;;;;;;8.93;8.02;;;;;;;24.55;70.27;101012.97;5003304;28;102375;-59
2021/08/05 00:03:58;;;;;;;9.15;8.25;;;;;;;24.55;70.23;101012.97;4994494;28;102505;-59
2021/08/05 00:06:26;;;;;;;10.65;8.90;;;;;;;24.55;70.17;101024.09;4997476;28;103212;-59
2021/08/05 00:08:52;;;;;;;19.00;8.95;;;;;;;24.56;70.35;101020.16;4989642;28;103932;-59
2021/08/05 00:11:19;;;;;;;9.25;8.35;;;;;;;24.55;70.46;101018.53;4992005;28;102092;-59
2021/08/05 00:13:46;;;;;;;9.25;8.45;;;;;;;24.54;70.40;101013.34;4980970;28;102422;-59
2021/08/05 00:16:14;;;;;;;8.30;7.60;;;;;;;24.54;70.69;101016.94;5001366;28;102429;-58
2021/08/05 00:18:41;;;;;;;9.15;8.25;;;;;;;24.54;70.46;101003.00;4999143;28;103988;-59
2021/08/05 00:21:08;;;;;;;9.50;8.10;;;;;;;24.53;70.43;101003.38;5007353;28;102639;-59
2021/08/05 00:23:34;;;;;;;8.57;7.75;;;;;;;24.53;70.42;101004.19;5005635;28;102134;-59
2021/08/05 00:26:02;;;;;;;8.85;8.05;;;;;;;24.54;70.53;101000.22;5005249;28;102559;-59
2021/08/05 00:28:28;;;;;;;10.48;8.18;;;;;;;24.53;70.43;100997.81;5000144;28;103718;-59
2021/08/05 00:30:55;;;;;;;8.93;7.70;;;;;;;24.52;70.37;100997.00;4995832;28;102618;-59
2021/08/05 00:33:22;;;;;;;8.85;8.05;;;;;;;24.53;70.64;100990.28;4991507;28;102372;-59
2021/08/05 00:35:50;;;;;;;8.85;8.05;;;;;;;24.52;70.34;100994.22;4998628;28;102269;-59
2021/08/05 00:38:16;;;;;;;8.83;8.00;;;;;;;;;;4999959;28;104101;-59
2021/08/05 00:40:43;;;;;;;8.43;7.70;;;;;;;24.52;70.78;100983.06;5005794;28;103669;-58
2021/08/05 00:43:09;;;;;;;9.23;8.32;;;;;;;24.53;70.57;100981.13;4997035;28;102666;-58
2021/08/05 00:45:37;;;;;;;8.70;7.88;;;;;;;24.52;70.72;100974.72;5000223;28;102516;-57
2021/08/05 00:48:05;;;;;;;8.25;7.55;;;;;;;24.52;70.59;100969.16;4998806;28;104911;-58
2021/08/05 00:50:32;;;;;;;9.02;7.90;;;;;;;24.51;70.82;100967.56;4978305;28;103005;-58
2021/08/05 00:53:00;;;;;;;8.68;7.88;;;;;;;24.51;70.57;100967.56;5005577;28;102376;-58
2021/08/05 00:55:26;;;;;;;8.63;7.72;;;;;;;24.52;70.59;100966.38;4992718;28;102834;-58
2021/08/05 00:57:55;;;;;;;9.82;8.20;;;;;;;24.51;70.55;100970.34;5006285;28;104009;-57
2021/08/05 01:00:23;;;;;;;9.68;8.10;;;;;;;24.51;70.78;100959.22;5002152;28;103405;-58
2021/08/05 01:02:55;;;;;;;7.60;6.90;;;;;;;24.50;70.54;100954.81;4993538;28;102498;-58
2021/08/05 01:05:24;;;;;;;8.85;8.05;;;;;;;24.50;70.52;100960.38;4995930;28;102606;-58
2021/08/05 01:07:57;;;;;;;8.73;7.93;;;;;;;24.51;70.66;100950.88;4998918;28;105088;-57
2021/08/05 01:10:30;;;;;;;8.50;7.70;;;;;;;24.50;70.49;100946.47;4994887;28;102450;-58
2021/08/05 01:13:06;;;;;;;8.60;7.80;;;;;;;24.51;70.43;100948.09;5003322;28;102618;-58
2021/08/05 01:15:32;;;;;;;9.63;8.63;;;;;;;24.49;70.80;100942.09;4995338;28;102555;-58
2021/08/05 01:18:02;;;;;;;8.65;7.85;;;;;;;24.50;70.60;100938.13;4995060;28;104062;-57
2021/08/05 01:20:31;;;;;;;8.55;7.65;;;;;;;24.50;70.61;100931.78;5003457;28;102527;-58
2021/08/05 01:23:12;;;;;;;10.00;8.55;;;;;;;24.49;70.45;100927.34;5000451;28;102536;-57
2021/08/05 01:25:47;;;;;;;8.57;7.78;;;;;;;24.50;70.59;100924.22;5010999;28;102266;-58
2021/08/05 01:28:15;;;;;;;9.02;8.20;;;;;;;24.49;70.70;100928.19;4998493;28;102703;-58
2021/08/05 01:30:43;;;;;;;;;;;;;;;24.49;70.44;100919.84;5000687;28;102305;-57
2021/08/05 01:33:11;;;;;;;9.00;8.10;;;;;;;24.48;70.86;100912.63;5008213;28;102123;-57
2021/08/05 01:35:40;;;;;;;12.70;9.15;;;;;;;24.49;70.73;100907.88;4996960;28;103748;-58
2021/08/05 01:38:10;;;;;;;9.02;8.13;;;;;;;24.48;70.66;100909.84;5000179;28;103921;-57
2021/08/05 01:40:38;;;;;;;9.40;8.40;;;;;;;24.49;70.66;100914.28;5000638;28;102256;-58
2021/08/05 01:43:05;;;;;;;9.25;8.38;;;;;;;24.48;70.67;100915.41;4996805;28;102103;-58
2021/08/05 01:45:34;;;;;;;8.88;8.02;;;;;;;24.48;70.88;100915.41;4996474;28;102037;-58
2021/08/05 01:48:03;;;;;;;8.98;8.00;;;;;;;24.48;70.92;100912.63;4990945;28;103845;-57
2021/08/05 01:50:30;;;;;;;9.05;8.18;;;;;;;24.47;70.84;100905.47;5003114;28;103236;-58
2021/08/05 01:52:57;;;;;;;8.30;7.50;;;;;;;24.47;70.94;100911.03;5002332;28;102459;-58
2021/08/05 01:55:23;;;;;;;8.50;7.68;;;;;;;24.47;70.69;100916.59;4996430;28;102823;-57
2021/08/05 01:57:50;;;;;;;9.50;7.55;;;;;;;24.48;70.71;100911.84;4993820;28;104970;-57
2021/08/05 02:00:16;;;;;;;9.00;8.10;;;;;;;24.48;70.88;100912.63;4996589;28;102955;-58
2021/08/05 02:02:44;;;;;;;8.70;7.80;;;;;;;24.47;70.76;100911.03;4990368;28;102548;-57
2021/08/05 02:05:17;;;;;;;8.68;7.75;;;;;;;24.48;70.65;100906.28;4993968;28;102894;-57
2021/08/05 02:07:50;;;;;;;8.43;7.63;;;;;;;24.47;70.69;100911.03;4991504;28;104037;-57
2021/08/05 02:10:20;;;;;;;8.73;7.93;;;;;;;24.46;70.84;100912.22;4998515;28;102742;-58
2021/08/05 02:12:49;;;;;;;8.95;8.05;;;;;;;24.47;70.74;100919.38;4994496;28;103503;-57
2021/08/05 02:15:17;;;;;;;8.32;7.53;;;;;;;24.47;70.79;100911.03;4999374;28;102536;-57
2021/08/05 02:17:49;;;;;;;8.73;7.90;;;;;;;24.46;70.86;100909.44;4997656;28;103817;-58
2021/08/05 02:20:16;;;;;;;8.20;7.28;;;;;;;24.47;70.88;100910.22;4998362;28;105001;-58
2021/08/05 02:22:46;;;;;;;7.85;7.10;;;;;;;24.45;71.07;100908.63;4997225;28;102100;-58
2021/08/05 02:25:13;;;;;;;9.13;8.32;;;;;;;24.45;71.05;100910.56;5003321;28;102499;-58
2021/08/05 02:27:42;;;;;;;8.57;7.88;;;;;;;24.45;71.04;100910.56;4993756;28;103812;-58
2021/08/05 02:30:11;;;;;;;9.50;7.63;;;;;;;24.44;70.88;100908.97;5001142;28;102194;-57
2021/08/05 02:32:39;;;;;;;9.13;8.27;;;;;;;24.44;71.02;100907.00;5004952;28;102570;-60
2021/08/05 02:35:09;;;;;;;8.67;7.87;;;;;;;24.45;71.05;100924.47;5001414;28;102318;-58
2021/08/05 02:37:36;;;;;;;9.35;8.35;;;;;;;24.45;71.16;100916.13;4997319;28;104684;-58
2021/08/05 02:40:05;;;;;;;9.15;8.27;;;;;;;24.45;71.00;100916.13;4995492;28;102596;-57
2021/08/05 02:42:33;;;;;;;9.00;8.05;;;;;;;24.44;70.97;100912.56;4995356;28;104929;-58
2021/08/05 02:45:01;;;;;;;9.40;8.23;;;;;;;24.44;71.08;100917.31;5009625;28;102236;-58
2021/08/05 02:47:28;;;;;;;9.83;8.77;;;;;;;24.43;71.11;100926.84;5001836;28;103567;-58
2021/08/05 02:49:59;;;;;;;9.30;8.50;;;;;;;24.43;71.22;100926.84;5001761;28;102279;-58
2021/08/05 02:52:27;;;;;;;9.25;8.30;;;;;;;24.43;71.13;100935.19;4992096;28;102351;-58
2021/08/05 02:54:55;;;;;;;9.82;8.63;;;;;;;24.43;71.42;100926.84;4998873;28;102410;-57
2021/08/05 02:57:22;;;;;;;8.70;7.80;;;;;;;24.44;71.09;100934.00;5001488;28;103884;-58
2021/08/05 02:59:50;;;;;;;8.82;7.90;;;;;;;24.44;71.36;100928.44;5004754;28;102608;-57
2021/08/05 03:02:17;;;;;;;8.90;8.10;;;;;;;24.44;71.04;100922.88;5007114;28;102467;-58
2021/08/05 03:04:43;;;;;;;8.68;7.88;;;;;;;24.42;71.04;100928.00;4992318;28;102219;-58
2021/08/05 03:07:10;;;;;;;8.95;8.13;;;;;;;24.44;71.00;100928.44;4989708;28;103855;-58
2021/08/05 03:09:38;;;;;;;9.77;8.43;;;;;;;24.43;71.06;100926.84;5002055;28;102604;-58
2021/08/05 03:12:05;;;;;;;8.60;7.80;;;;;;;24.42;71.23;100931.59;4990981;28;102034;-58
2021/08/05 03:14:32;;;;;;;9.38;8.48;;;;;;;24.42;71.39;100934.38;4996965;28;102607;-58
2021/08/05 03:17:00;;;;;;;10.02;8.80;;;;;;;24.41;71.00;100918.84;4999021;28;103723;-58
2021/08/05 03:19:26;;;;;;;11.82;8.95;;;;;;;24.42;71.19;100925.22;4993296;28;102669;-57
2021/08/05 03:21:54;;;;;;;9.18;8.35;;;;;;;24.41;71.49;100923.59;4993396;28;102265;-58
2021/08/05 03:24:20;;;;;;;9.10;8.20;;;;;;;24.41;71.53;100924.41;4996682;28;102317;-57
2021/08/05 03:26:48;;;;;;;9.20;8.35;;;;;;;24.41;71.42;100923.59;4992996;28;103996;-58
2021/08/05 03:29:15;;;;;;;11.87;8.33;;;;;;;24.41;71.48;100918.03;4995093;28;102236;-58
2021/08/05 03:31:42;;;;;;;8.80;8.00;;;;;;;24.40;71.58;100916.44;4996561;28;102685;-58
2021/08/05 03:34:09;;;;;;;9.15;8.25;;;;;;;24.41;71.39;100920.81;4992494;28;102569;-58
2021/08/05 03:36:36;;;;;;;9.10;8.25;;;;;;;24.41;71.36;100923.59;5001417;28;103891;-57
2021/08/05 03:39:03;;;;;;;9.40;8.43;;;;;;;24.41;71.27;100918.84;4996185;28;102387;-58
2021/08/05 03:41:29;;;;;;;9.88;8.88;;;;;;;24.41;71.40;100918.03;5002917;28;102137;-58
2021/08/05 03:43:58;;;;;;;9.05;8.13;;;;;;;24.42;71.21;100919.66;5005127;28;102528;-58
2021/08/05 03:46:25;;;;;;;8.70;7.90;;;;;;;24.42;71.42;100930.78;4995611;28;103773;-57
2021/08/05 03:48:52;;;;;;;9.10;8.25;;;;;;;24.42;71.25;100922.44;4995979;28;102855;-58
2021/08/05 03:51:19;;;;;;;9.63;8.20;;;;;;;24.42;71.67;100933.56;4990476;28;102781;-58
2021/08/05 03:53:45;;;;;;;8.63;7.82;;;;;;;24.41;71.58;100926.38;4991422;28;102363;-58
2021/08/05 03:56:12;;;;;;;7.93;7.22;;;;;;;24.42;71.42;100925.22;4990761;28;103929;-58
2021/08/05 03:58:39;;;;;;;9.25;8.38;;;;;;;24.42;71.57;100922.44;4994067;28;102514;-57
2021/08/05 04:01:06;;;;;;;8.25;7.55;;;;;;;24.42;71.39;100919.66;4997409;28;103194;-58
2021/08/05 04:03:34;;;;;;;8.50;7.70;;;;;;;24.42;71.50;100919.66;5006035;28;102512;-57
2021/08/05 04:06:00;;;;;;;8.77;7.97;;;;;;;24.41;71.48;100920.81;4989848;28;103900;-58
2021/08/05 04:08:28;;;;;;;8.80;8.00;;;;;;;24.41;71.56;100913.28;4994968;28;102383;-57
2021/08/05 04:10:54;;;;;;;8.38;7.60;;;;;;;24.42;71.40;100914.91;4996047;28;102131;-57
2021/08/05 04:13:23;;;;;;;8.82;8.02;;;;;;;24.41;71.49;100923.59;4990958;28;103265;-58
2021/08/05 04:15:50;;;;;;;8.90;8.05;;;;;;;24.40;71.46;100911.66;4991542;28;103718;-58
2021/08/05 04:18:19;;;;;;;8.10;7.40;;;;;;;24.41;71.38;100921.63;4992127;28;102412;-58
2021/08/05 04:20:45;;;;;;;8.40;7.60;;;;;;;24.40;71.38;100922.00;4997934;28;102024;-57
2021/08/05 04:23:12;;;;;;;8.55;7.75;;;;;;;24.42;71.37;100925.22;4988790;28;102644;-58
2021/08/05 04:25:40;;;;;;;8.45;7.65;;;;;;;24.41;71.48;100918.03;5004427;28;104040;-58
2021/08/05 04:28:07;;;;;;;8.90;8.00;;;;;;;24.40;71.58;100917.22;5002657;28;102595;-58
2021/08/05 04:30:34;;;;;;;8.05;7.32;;;;;;;24.41;71.25;100918.03;4978853;28;102297;-57
2021/08/05 04:33:00;;;;;;;8.30;7.50;;;;;;;24.40;71.19;100910.84;5002084;28;103186;-58
2021/08/05 04:35:28;;;;;;;8.38;7.68;;;;;;;24.40;71.51;100911.66;5005921;28;103977;-58
2021/08/05 04:37:56;;;;;;;;;;;;;;;24.40;71.20;100914.44;5000082;28;102438;-58
2021/08/05 04:40:24;;;;;;;8.32;7.53;;;;;;;24.40;71.62;100913.66;5005041;28;102407;-58
2021/08/05 04:42:52;;;;;;;8.68;7.80;;;;;;;24.40;71.70;100910.84;4992257;28;102699;-58
2021/08/05 04:45:19;;;;;;;8.27;7.47;;;;;;;24.39;71.73;100912.84;5003033;28;103861;-58
2021/08/05 04:47:51;;;;;;;8.20;7.38;;;;;;;24.41;71.56;100912.47;4990261;28;102532;-58
2021/08/05 04:50:19;;;;;;;9.30;8.40;;;;;;;24.40;71.53;100911.66;4990852;28;102346;-58
2021/08/05 04:52:47;;;;;;;;;;;;;;;24.41;71.51;100918.03;5003038;28;102429;-58
2021/08/05 04:55:13;;;;;;;8.23;7.53;;;;;;;24.39;71.46;100914.78;4990043;28;104391;-58
2021/08/05 04:57:47;;;;;;;8.35;7.55;;;;;;;24.41;71.38;100906.91;5003694;28;103034;-58
2021/08/05 05:00:19;;;;;;;8.27;7.57;;;;;;;24.40;71.54;100911.66;4999929;28;103643;-58
2021/08/05 05:02:46;;;;;;;8.15;7.38;;;;;;;24.42;71.42;100914.09;5010263;28;102527;-58
2021/08/05 05:05:12;;;;;;;8.38;7.57;;;;;;;24.41;71.68;100912.47;4996993;28;103707;-58
2021/08/05 05:07:39;;;;;;;8.57;7.75;;;;;;;24.42;71.53;100911.31;4984665;28;104402;-58
2021/08/05 05:10:09;;;;;;;8.50;7.70;;;;;;;24.42;71.59;100914.91;4982642;28;104535;-58
2021/08/05 05:12:36;;;;;;;8.25;7.55;;;;;;;24.42;71.63;100911.31;4992564;28;103613;-58
2021/08/05 05:15:03;;;;;;;8.98;8.18;;;;;;;24.41;71.59;100913.28;4989064;28;103981;-58
2021/08/05 05:17:30;;;;;;;8.65;7.68;;;;;;;24.43;71.76;100915.72;4991001;28;102705;-58
2021/08/05 05:19:56;;;;;;;8.00;7.30;;;;;;;24.43;71.65;100910.94;4997204;28;102417;-58
2021/08/05 05:22:23;;;;;;;8.05;7.35;;;;;;;24.44;71.72;100906.19;4980976;28;102860;-58
2021/08/05 05:24:50;;;;;;;8.27;7.35;;;;;;;24.46;71.81;100909.44;4993895;28;104248;-57
2021/08/05 05:27:18;;;;;;;8.48;7.68;;;;;;;24.44;71.51;100895.84;5002040;28;102748;-58
2021/08/05 05:29:45;;;;;;;7.93;7.13;;;;;;;24.46;71.36;100903.88;5017715;27;102635;-58
2021/08/05 05:32:11;;;;;;;7.72;7.03;;;;;;;24.47;71.51;100897.13;5008079;28;102207;-58
2021/08/05 05:34:38;;;;;;;8.25;7.55;;;;;;;24.50;71.57;100893.63;4989025;28;104111;-58
2021/08/05 05:37:05;;;;;;;8.57;7.78;;;;;;;24.50;71.54;100893.63;4991369;28;102562;-58
2021/08/05 05:39:31;;;;;;;8.15;7.35;;;;;;;24.52;71.33;100894.06;4995377;28;102459;-58
2021/08/05 05:41:58;;;;;;;7.82;7.13;;;;;;;24.55;71.40;100895.31;4997635;28;102254;-58
2021/08/05 05:44:26;;;;;;;8.60;7.80;;;;;;;24.56;71.40;100886.63;5010512;28;104263;-58
2021/08/05 05:46:53;;;;;;;8.48;7.68;;;;;;;24.58;71.11;100900.97;5002201;28;102204;-58
2021/08/05 05:49:20;;;;;;;8.30;7.50;;;;;;;24.58;71.27;100887.03;5001101;28;102619;-57
2021/08/05 05:51:46;;;;;;;8.43;7.57;;;;;;;24.59;71.14;100885.88;5004258;28;102584;-57
2021/08/05 05:54:13;;;;;;;8.25;7.45;;;;;;;24.61;71.25;100888.31;4995671;28;103929;-57
2021/08/05 05:56:40;;;;;;;9.13;8.30;;;;;;;24.62;71.09;100887.94;4998806;28;102169;-57
2021/08/05 05:59:06;;;;;;;8.38;7.60;;;;;;;24.64;71.25;100887.59;5000719;28;102662;-57
2021/08/05 06:01:35;;;;;;;7.88;7.18;;;;;;;24.64;70.98;100882.81;4995569;28;102503;-57
2021/08/05 06:04:02;;;;;;;8.02;7.32;;;;;;;24.67;70.94;100884.06;5003077;28;103820;-58
2021/08/05 06:06:29;;;;;;;8.23;7.43;;;;;;;24.67;71.13;100876.53;5001332;28;102511;-57
2021/08/05 06:08:56;;;;;;;8.20;7.50;;;;;;;24.69;70.87;100868.59;4996928;28;102605;-57
2021/08/05 06:11:26;;;;;;;9.07;8.13;;;;;;;24.71;71.13;100864.69;4996012;28;102583;-57
2021/08/05 06:13:53;;;;;;;8.20;7.40;;;;;;;24.72;70.91;100866.28;5005251;28;104027;-57
2021/08/05 06:16:21;;;;;;;8.50;7.72;;;;;;;24.73;70.90;100868.69;5002365;28;102201;-57
2021/08/05 06:18:49;;;;;;;8.20;7.50;;;;;;;24.73;70.94;100868.69;5000102;28;105638;-57
2021/08/05 06:21:22;;;;;;;7.85;7.05;;;;;;;24.74;70.79;100866.72;5001431;28;102728;-57
2021/08/05 06:23:49;;;;;;;7.80;7.10;;;;;;;24.75;70.66;100868.34;5004625;28;105149;-57
2021/08/05 06:26:19;;;;;;;8.10;7.40;;;;;;;24.74;70.61;100878.66;4998739;28;102582;-57
2021/08/05 06:28:46;;;;;;;7.93;7.05;;;;;;;24.76;70.77;100881.09;4989902;28;102203;-57
2021/08/05 06:31:13;;;;;;;7.60;6.93;;;;;;;24.77;70.71;100877.13;5006189;28;102826;-57
2021/08/05 06:33:40;;;;;;;7.30;6.70;;;;;;;24.78;70.99;100870.41;4995712;28;103960;-58
2021/08/05 07:58:44;;;;;;;18.42;8.90;;;;;;;25.61;68.50;100835.47;5019353;28;102025;-57
2021/08/05 08:01:10;;;;;;;15.60;8.38;;;;;;;25.78;67.84;100825.00;5016771;27;102280;-60
2021/08/05 08:03:37;;;;;;;15.75;7.55;;;;;;;25.71;68.34;100830.44;5014074;27;103123;-58
2021/08/05 08:06:03;;;;;;;20.50;8.45;;;;;;;25.77;68.28;100824.19;5019783;27;102098;-57
2021/08/05 08:08:30;;;;;;;12.80;7.88;;;;;;;25.80;68.22;100819.91;5019096;27;102208;-58
2021/08/05 08:10:57;;;;;;;19.95;8.25;;;;;;;25.91;67.88;100823.66;5012128;27;105633;-57
2021/08/05 08:13:24;;;;;;;15.77;7.97;;;;;;;25.94;67.98;100824.91;5011422;27;104215;-57
2021/08/05 08:15:52;;;;;;;14.45;7.75;;;;;;;26.02;67.67;100827.44;5027863;27;102268;-58
2021/08/05 08:18:19;;;;;;;11.88;7.32;;;;;;;26.06;67.56;100833.06;5026387;27;102537;-58
2021/08/05 08:20:46;;;;;;;11.02;7.55;;;;;;;26.09;67.43;100816.38;5015113;27;103558;-58
2021/08/05 08:23:13;;;;;;;12.02;7.75;;;;;;;26.13;67.33;100813.66;5029167;27;103842;-58
2021/08/05 08:25:40;;;;;;;12.07;7.57;;;;;;;26.19;67.28;100812.16;5015485;27;102101;-58
2021/08/05 08:28:07;;;;;;;10.10;7.45;;;;;;;26.23;67.24;100798.28;5009912;27;102480;-58
2021/08/05 08:30:34;;;;;;;15.73;7.82;;;;;;;26.31;67.38;100805.56;5023239;27;102750;-58
2021/08/05 08:33:03;;;;;;;13.32;7.60;;;;;;;26.38;66.98;100794.50;5018597;27;103736;-58
2021/08/05 08:35:29;;;;;;;9.82;6.68;;;;;;;26.43;66.90;100784.97;5025016;27;102250;-58
2021/08/05 08:37:56;;;;;;;12.70;7.50;;;;;;;26.60;66.49;100795.63;5015286;27;101900;-58
2021/08/05 08:40:22;;;;;;;17.42;7.78;;;;;;;26.57;66.64;100797.16;5018994;27;102942;-58
2021/08/05 08:42:51;;;;;;;16.85;8.38;;;;;;;26.64;66.67;100790.88;5017848;27;102692;-57
2021/08/05 08:45:18;;;;;;;20.88;8.05;;;;;;;26.69;66.57;100778.59;5025761;27;102378;-59
2021/08/05 08:47:48;;;;;;;11.73;7.82;;;;;;;26.69;66.74;100781.41;5024992;27;102172;-58
2021/08/05 08:50:16;;;;;;;15.10;8.05;;;;;;;26.72;66.87;100780.59;5017199;27;102154;-58
2021/08/05 08:52:45;;;;;;;15.48;7.88;;;;;;;26.73;66.90;100783.03;5010446;27;103742;-57
2021/08/05 08:55:13;;;;;;;13.77;8.15;;;;;;;26.78;67.12;100779.09;5016201;27;102718;-58
2021/08/05 08:57:39;;;;;;;19.03;8.90;;;;;;;26.86;66.83;100785.56;5018537;27;102374;-58
2021/08/05 09:00:10;;;;;;;15.65;8.70;;;;;;;26.85;67.03;100784.75;5010563;28;102660;-58
2021/08/05 09:02:37;;;;;;;11.70;8.05;;;;;;;26.89;66.97;100777.22;4999278;28;104002;-58
2021/08/05 09:05:06;;;;;;;15.55;9.13;;;;;;;26.93;66.98;100778.06;4994617;28;102556;-58
2021/08/05 09:07:34;;;;;;;12.30;8.50;;;;;;;26.92;66.99;100779.28;4995523;28;102666;-58
2021/08/05 09:10:01;;;;;;;13.73;8.32;;;;;;;26.97;67.00;100781.72;5000240;28;102190;-58
2021/08/05 09:12:27;;;;;;;11.65;8.20;;;;;;;26.99;67.05;100776.56;5000305;28;103716;-58
2021/08/05 09:14:56;;;;;;;9.45;8.18;;;;;;;27.04;67.10;100765.03;4999886;28;102401;-58
2021/08/05 09:17:26;;;;;;;11.60;8.15;;;;;;;27.10;66.87;100771.09;4998314;28;102155;-58
2021/08/05 09:19:54;;;;;;;13.63;8.43;;;;;;;27.11;66.96;100774.69;4992967;28;102549;-58
2021/08/05 09:22:36;;;;;;;13.38;8.45;;;;;;;27.13;66.95;100773.16;4995252;28;103869;-58
2021/08/05 09:25:27;;;;;;;11.60;8.60;;;;;;;27.16;66.98;100783.56;5004017;28;102658;-59
2021/08/05 09:27:55;;;;;;;12.65;8.05;;;;;;;27.17;66.86;100774.00;5002194;28;104507;-58
2021/08/05 09:30:35;;;;;;;;;;;;;;;27.22;66.82;100778.41;4996647;28;103900;-58
2021/08/05 09:33:09;;;;;;;12.05;7.72;;;;;;;27.22;66.67;100781.22;5003275;28;103947;-58
2021/08/05 09:35:38;;;;;;;11.73;7.82;;;;;;;27.24;67.00;100770.47;5000001;28;102860;-58
2021/08/05 09:38:20;;;;;;;15.48;8.15;;;;;;;27.28;66.58;100771.31;5001438;28;102607;-58
2021/08/05 09:40:52;;;;;;;10.70;7.95;;;;;;;27.30;66.83;100783.72;5009447;28;102927;-59
2021/08/05 09:43:27;;;;;;;12.25;7.82;;;;;;;27.26;66.86;100780.09;5004205;28;105333;-58
2021/08/05 09:45:54;;;;;;;13.18;7.10;;;;;;;27.32;66.58;100774.94;5002556;28;102338;-58
2021/08/05 09:48:41;;;;;;;12.23;7.88;;;;;;;27.33;66.49;100770.94;5006319;28;102596;-58
2021/08/05 09:51:10;;;;;;;10.50;7.88;;;;;;;27.39;66.41;100758.22;4998783;28;102574;-58
2021/08/05 09:56:34;;;;;;;13.02;8.02;;;;;;;27.40;66.69;100754.25;5026937;27;102483;-57
2021/08/05 09:59:08;;;;;;;10.90;7.70;;;;;;;27.43;66.45;100753.47;5020263;27;102720;-57
2021/08/05 10:01:35;;;;;;;13.48;7.88;;;;;;;27.45;66.30;100773.47;5021679;27;103787;-57
2021/08/05 10:04:24;;;;;;;11.67;7.10;;;;;;;27.48;66.03;100749.50;5013616;27;102729;-58
2021/08/05 10:06:58;;;;;;;8.63;6.85;;;;;;;27.51;66.47;100754.34;5018702;27;102256;-58
2021/08/05 10:09:26;;;;;;;10.50;7.07;;;;;;;27.54;65.85;100754.38;5022850;27;102290;-57
2021/08/05 10:12:08;;;;;;;9.30;6.70;;;;;;;27.54;66.15;100748.78;5022138;27;103940;-57
2021/08/05 10:14:35;;;;;;;9.05;6.68;;;;;;;27.57;65.50;100743.63;5017408;27;102034;-57
2021/08/05 10:17:06;;;;;;;13.48;6.15;;;;;;;27.54;65.91;100734.81;5018350;27;102397;-57
2021/08/05 10:19:36;;;;;;;7.50;6.60;;;;;;;27.54;65.35;100754.38;5020359;27;103202;-57
2021/08/05 10:22:04;;;;;;;15.38;7.65;;;;;;;27.62;65.31;100743.25;5016940;27;104607;-57
2021/08/05 10:24:32;;;;;;;7.60;6.10;;;;;;;27.62;65.42;100727.28;5012636;27;103673;-57
2021/08/05 12:37:13;;;;;;;9.52;8.45;;;;;;;26.42;68.91;100629.91;5127655;27;102190;-57
2021/08/05 12:39:42;;;;;;;10.05;8.73;;;;;;;26.42;68.83;100635.50;5116825;27;102291;-58
2021/08/05 12:42:09;;;;;;;11.00;8.27;;;;;;;26.42;69.10;100633.50;5122551;27;103905;-57
2021/08/05 12:44:36;;;;;;;10.27;8.80;;;;;;;26.40;68.89;100633.09;5124880;27;102784;-58
2021/08/05 12:47:05;;;;;;;12.35;9.50;;;;;;;26.41;68.82;100631.91;5121394;27;102290;-58
2021/08/05 12:49:34;;;;;;;10.38;8.57;;;;;;;26.40;68.95;100630.31;5120964;27;102362;-57
2021/08/05 12:52:02;;;;;;;14.48;8.73;;;;;;;26.39;68.85;100623.09;5124840;27;104708;-57
2021/08/05 12:54:32;;;;;;;9.80;8.57;;;;;;;26.40;68.98;100627.53;5126480;27;105498;-58
2021/08/05 12:57:10;;;;;;;12.27;9.65;;;;;;;26.41;69.66;100631.91;5122063;27;102548;-58
2021/08/05 12:59:42;;;;;;;11.82;9.40;;;;;;;26.40;69.02;100615.53;5118422;27;102374;-57
2021/08/05 13:02:10;;;;;;;11.05;9.13;;;;;;;26.39;69.55;100628.69;5118804;27;103918;-58
2021/08/05 13:04:37;;;;;;;13.43;9.60;;;;;;;26.39;69.97;100620.31;5117958;27;103566;-58
2021/08/05 13:07:06;;;;;;;12.68;9.18;;;;;;;26.38;69.43;100621.50;5115998;27;102455;-58
2021/08/05 13:09:34;;;;;;;11.60;9.75;;;;;;;26.38;69.35;100620.72;5116214;27;102783;-58
2021/08/05 13:12:02;;;;;;;;;;;;;;;26.37;69.54;100625.50;5123575;27;104468;-58
2021/08/05 13:14:31;;;;;;;12.30;9.40;;;;;;;26.36;69.37;100621.06;5120409;27;102523;-58
2021/08/05 13:17:06;;;;;;;15.88;9.10;;;;;;;26.36;70.28;100607.94;5113813;27;102566;-58
2021/08/05 13:19:51;;;;;;;13.90;8.88;;;;;;;26.35;70.11;100591.56;5114712;27;102400;-58
2021/08/05 13:22:18;;;;;;;12.23;8.82;;;;;;;26.32;70.03;100607.09;5118782;27;104188;-58
2021/08/05 13:24:58;;;;;;;14.75;9.88;;;;;;;26.33;70.44;100603.13;5117256;27;102425;-57
2021/08/05 13:27:25;;;;;;;11.18;8.85;;;;;;;26.32;70.34;100595.91;5115644;27;103388;-58
2021/08/05 13:29:53;;;;;;;10.57;8.85;;;;;;;26.31;70.35;100607.47;5126891;27;102119;-58
2021/08/05 13:32:21;;;;;;;10.20;9.07;;;;;;;26.31;70.08;100599.09;5126861;27;104057;-57
2021/08/05 13:35:06;;;;;;;13.90;9.50;;;;;;;26.30;69.94;100591.94;5110956;27;104336;-57
2021/08/05 13:37:35;;;;;;;10.45;8.85;;;;;;;26.28;70.01;100578.34;5111574;27;102166;-58
2021/08/05 13:40:06;;;;;;;8.90;8.00;;;;;;;26.25;69.64;100578.31;5104552;27;103289;-58
2021/08/05 13:42:35;;;;;;;10.07;8.40;;;;;;;26.25;69.39;100578.31;5109190;27;103795;-58
2021/08/05 13:45:03;;;;;;;11.15;8.43;;;;;;;26.25;69.62;100583.88;5108670;27;102226;-58
2021/08/05 13:47:29;;;;;;;9.55;8.60;;;;;;;26.24;69.46;100565.56;5108839;27;103132;-58
2021/08/05 13:49:56;;;;;;;9.80;8.77;;;;;;;26.22;69.59;100562.31;5116044;27;102718;-58
2021/08/05 13:52:22;;;;;;;14.73;9.05;;;;;;;26.22;69.46;100579.91;5111091;27;104204;-58
2021/08/05 13:54:50;;;;;;;12.30;10.05;;;;;;;26.23;69.89;100564.75;5112842;27;102504;-58
2021/08/05 13:57:18;;;;;;;15.10;10.75;;;;;;;26.21;70.08;100558.75;5109618;27;104597;-58
2021/08/05 13:59:45;;;;;;;12.15;9.82;;;;;;;26.22;69.92;100565.13;5099307;27;102509;-58
2021/08/05 14:02:12;;;;;;;9.93;8.88;;;;;;;26.19;70.01;100574.28;5107857;27;104809;-58
2021/08/05 14:04:38;;;;;;;10.80;8.82;;;;;;;26.19;70.07;100569.50;5106506;27;102604;-58
2021/08/05 14:07:09;;;;;;;12.88;8.82;;;;;;;26.19;70.25;100586.22;5104764;27;102662;-58
2021/08/05 14:09:36;;;;;;;11.05;8.77;;;;;;;26.20;69.91;100559.13;5100083;27;102452;-58
2021/08/05 14:12:07;;;;;;;9.02;8.13;;;;;;;26.19;69.91;100565.91;5098947;27;103725;-57
2021/08/05 14:14:37;;;;;;;11.32;9.00;;;;;;;26.17;70.05;100554.31;5101553;27;102308;-58
2021/08/05 14:17:04;;;;;;;13.43;8.30;;;;;;;26.14;69.88;100550.28;5101941;27;102161;-58
2021/08/05 14:19:30;;;;;;;13.05;8.18;;;;;;;26.13;69.83;100555.06;5108494;27;102857;-58
2021/08/05 14:21:57;;;;;;;12.30;7.43;;;;;;;26.13;69.53;100549.50;5106931;27;103332;-58
2021/08/05 14:24:24;;;;;;;15.25;8.05;;;;;;;26.10;69.32;100533.53;5099913;27;102192;-57
2021/08/05 14:26:53;;;;;;;10.25;7.25;;;;;;;26.09;69.48;100536.69;5095939;27;102676;-58
2021/08/05 14:29:20;;;;;;;11.13;7.50;;;;;;;26.08;69.28;100535.91;5098280;27;102767;-57
2021/08/05 14:31:48;;;;;;;9.18;7.15;;;;;;;26.08;68.98;100535.09;5097017;27;103917;-57
2021/08/05 14:34:14;;;;;;;8.55;7.68;;;;;;;26.04;68.45;100535.06;5102619;27;102426;-57
2021/08/05 14:36:41;;;;;;;8.68;7.72;;;;;;;26.02;68.77;100520.69;5103639;27;102618;-57
2021/08/05 14:39:09;;;;;;;11.43;7.72;;;;;;;26.01;68.76;100535.03;5113493;27;102234;-58
2021/08/05 14:41:36;;;;;;;7.57;6.90;;;;;;;26.02;68.54;100517.91;5107855;27;103873;-58
2021/08/05 14:44:05;;;;;;;;;;;;;;;26.01;68.80;100524.66;5101054;27;102551;-57
2021/08/05 14:46:32;;;;;;;7.75;7.00;;;;;;;25.99;68.70;100521.44;5108383;27;102488;-58
2021/08/05 14:49:00;;;;;;;8.85;7.95;;;;;;;25.98;68.89;100508.69;5098395;27;102831;-57
2021/08/05 14:51:28;;;;;;;9.57;7.68;;;;;;;25.99;68.87;100515.06;5098660;27;103801;-57
2021/08/05 14:53:55;;;;;;;8.57;6.85;;;;;;;25.98;68.97;100514.28;5102020;27;102510;-59
2021/08/05 14:56:23;;;;;;;8.93;7.53;;;;;;;25.98;68.90;100519.84;5114727;27;102554;-57
2021/08/05 14:58:49;;;;;;;10.80;7.28;;;;;;;25.97;68.91;100511.88;5104042;27;103660;-57